createdAt,value
2017-06-29T00:02:05.555Z,63.60
2017-06-29T00:04:32.499Z,63.50
2017-06-29T00:06:59.341Z,63.50
2017-06-29T00:09:26.293Z,63.40
2017-06-29T00:11:53.240Z,63.20
2017-06-29T00:14:20.108Z,63.10
2017-06-29T00:16:47.011Z,63.20
2017-06-29T00:19:13.915Z,63.50
2017-06-29T00:21:40.745Z,64.30
2017-06-29T00:24:07.590Z,63.80
2017-06-29T00:26:34.527Z,63.80
2017-06-29T00:29:01.339Z,64.50
2017-06-29T00:31:28.245Z,64.30
2017-06-29T00:33:55.948Z,64.70
2017-06-29T00:36:22.852Z,64.70
2017-06-29T00:38:50.523Z,64.90
2017-06-29T00:41:18.123Z,64.90
2017-06-29T00:43:44.952Z,64.90
2017-06-29T00:46:11.873Z,64.90
2017-06-29T00:48:39.510Z,65.00
2017-06-29T00:51:06.352Z,65.00
2017-06-29T00:53:33.324Z,65.00
2017-06-29T00:56:00.956Z,65.10
2017-06-29T00:58:27.785Z,65.10
2017-06-29T01:00:54.695Z,65.10
2017-06-29T01:03:21.544Z,65.10
2017-06-29T01:05:48.468Z,65.40
2017-06-29T01:08:15.299Z,65.20
2017-06-29T01:10:42.931Z,65.00
2017-06-29T01:13:09.770Z,65.00
2017-06-29T01:15:36.607Z,64.70
2017-06-29T01:18:03.525Z,64.40
2017-06-29T01:20:31.144Z,64.20
2017-06-29T01:22:57.974Z,64.00
2017-06-29T01:25:24.899Z,63.70
2017-06-29T01:27:51.733Z,63.60
2017-06-29T01:30:18.586Z,63.20
2017-06-29T01:32:45.506Z,63.10
2017-06-29T01:35:12.347Z,63.20
2017-06-29T01:37:39.191Z,63.30
2017-06-29T01:40:06.165Z,63.10
2017-06-29T01:42:33.018Z,63.20
2017-06-29T01:44:59.859Z,63.50
2017-06-29T01:47:26.788Z,63.40
2017-06-29T01:49:53.623Z,63.70
2017-06-29T01:52:20.471Z,63.70
2017-06-29T01:54:47.371Z,63.90
2017-06-29T01:57:14.190Z,64.10
2017-06-29T01:59:41.023Z,64.40
2017-06-29T02:02:07.938Z,64.70
2017-06-29T02:04:34.787Z,64.90
2017-06-29T02:07:01.615Z,64.80
2017-06-29T02:09:28.539Z,64.90
2017-06-29T02:11:55.373Z,65.10
2017-06-29T02:14:22.227Z,65.10
2017-06-29T02:16:49.914Z,66.20
2017-06-29T02:19:16.754Z,65.50
2017-06-29T02:21:44.377Z,67.80
2017-06-29T02:24:11.281Z,67.80
2017-06-29T02:26:38.165Z,69.10
2017-06-29T02:29:05.058Z,69.20
2017-06-29T02:31:31.876Z,69.80
2017-06-29T02:33:58.711Z,70.30
2017-06-29T02:36:25.597Z,70.50
2017-06-29T02:38:52.502Z,71.60
2017-06-29T02:41:19.330Z,72.70
2017-06-29T02:43:46.222Z,72.60
2017-06-29T02:46:13.070Z,73.60
2017-06-29T02:48:39.981Z,73.50
2017-06-29T02:51:06.859Z,74.50
2017-06-29T02:53:33.770Z,73.50
2017-06-29T02:56:01.460Z,73.40
2017-06-29T02:58:29.022Z,73.70
2017-06-29T03:00:56.614Z,73.30
2017-06-29T03:03:23.551Z,73.20
2017-06-29T03:05:50.429Z,73.50
2017-06-29T03:08:17.273Z,73.40
2017-06-29T03:10:44.163Z,73.40
2017-06-29T03:13:11.749Z,73.60
2017-06-29T03:15:38.587Z,73.60
2017-06-29T03:18:05.515Z,73.30
2017-06-29T03:20:32.338Z,73.20
2017-06-29T03:22:59.919Z,74.00
2017-06-29T03:25:26.854Z,74.00
2017-06-29T03:27:54.439Z,73.70
2017-06-29T03:30:21.282Z,73.60
2017-06-29T03:32:48.191Z,73.50
2017-06-29T03:35:15.038Z,73.40
2017-06-29T03:37:41.896Z,73.50
2017-06-29T03:40:09.592Z,74.10
2017-06-29T03:42:36.480Z,74.10
2017-06-29T03:45:03.374Z,73.50
2017-06-29T03:47:30.193Z,73.70
2017-06-29T03:49:57.846Z,73.50
2017-06-29T03:52:24.763Z,73.40
2017-06-29T03:54:51.598Z,73.60
2017-06-29T03:57:18.479Z,73.80
2017-06-29T03:59:46.039Z,74.40
2017-06-29T04:02:12.967Z,73.80
2017-06-29T04:04:39.795Z,73.70
2017-06-29T04:07:06.640Z,74.40
2017-06-29T04:09:33.546Z,74.00
2017-06-29T04:12:00.374Z,73.80
2017-06-29T04:14:27.950Z,73.80
2017-06-29T04:16:55.130Z,73.70
2017-06-29T04:19:21.970Z,74.60
2017-06-29T04:21:48.824Z,74.00
2017-06-29T04:24:15.729Z,74.60
2017-06-29T04:26:47.590Z,74.10
2017-06-29T04:29:14.482Z,73.80
2017-06-29T04:31:41.310Z,73.70
2017-06-29T04:34:08.199Z,74.10
2017-06-29T04:36:35.109Z,74.30
2017-06-29T04:39:01.923Z,74.40
2017-06-29T04:41:28.765Z,74.20
2017-06-29T04:43:55.670Z,74.10
2017-06-29T04:46:22.487Z,74.50
2017-06-29T04:48:49.327Z,74.30
2017-06-29T04:51:20.748Z,74.40
2017-06-29T04:53:48.236Z,74.30
2017-06-29T04:56:15.067Z,74.40
2017-06-29T04:58:41.962Z,74.80
2017-06-29T05:01:08.898Z,74.60
2017-06-29T05:03:36.565Z,74.20
2017-06-29T05:06:03.383Z,74.20
2017-06-29T05:08:30.278Z,74.50
2017-06-29T05:10:57.833Z,74.00
2017-06-29T05:13:25.509Z,74.30
2017-06-29T05:15:52.406Z,74.30
2017-06-29T05:18:19.231Z,74.20
2017-06-29T05:20:46.123Z,74.30
2017-06-29T05:23:13.674Z,74.70
2017-06-29T05:25:41.716Z,74.60
2017-06-29T05:28:08.540Z,74.90
2017-06-29T05:30:35.386Z,75.30
2017-06-29T05:33:02.278Z,74.80
2017-06-29T05:35:29.859Z,74.80
2017-06-29T05:37:56.779Z,74.50
2017-06-29T05:40:24.422Z,74.30
2017-06-29T05:42:51.319Z,74.40
2017-06-29T05:45:18.223Z,73.80
2017-06-29T05:47:45.053Z,73.20
2017-06-29T05:50:11.965Z,73.20
2017-06-29T05:52:38.790Z,71.60
2017-06-29T05:55:06.442Z,69.30
2017-06-29T05:57:33.275Z,69.30
2017-06-29T06:00:01.284Z,69.60
2017-06-29T06:02:32.011Z,70.50
2017-06-29T06:04:59.087Z,71.30
2017-06-29T06:07:25.900Z,72.20
2017-06-29T06:09:53.559Z,72.70
2017-06-29T06:12:21.200Z,72.60
2017-06-29T06:14:48.131Z,72.60
2017-06-29T06:17:14.967Z,72.10
2017-06-29T06:19:41.807Z,72.10
2017-06-29T06:22:08.723Z,72.00
2017-06-29T06:24:35.531Z,71.60
2017-06-29T06:27:03.124Z,72.30
2017-06-29T06:29:30.025Z,72.30
2017-06-29T06:31:56.855Z,72.70
2017-06-29T06:34:23.674Z,72.60
2017-06-29T06:36:50.559Z,72.80
2017-06-29T06:39:17.463Z,72.90
2017-06-29T06:41:44.600Z,72.70
2017-06-29T06:44:11.439Z,72.60
2017-06-29T06:46:38.331Z,73.20
2017-06-29T06:49:05.151Z,73.20
2017-06-29T06:51:32.043Z,72.90
2017-06-29T06:53:58.883Z,73.20
2017-06-29T06:56:25.870Z,72.80
2017-06-29T06:58:52.707Z,72.90
2017-06-29T07:01:19.518Z,72.40
2017-06-29T07:03:46.420Z,72.10
2017-06-29T07:06:13.231Z,72.30
2017-06-29T07:08:40.071Z,72.00
2017-06-29T07:11:06.989Z,72.30
2017-06-29T07:13:33.893Z,71.90
2017-06-29T07:16:04.124Z,71.30
2017-06-29T07:18:30.965Z,71.70
2017-06-29T07:20:57.949Z,71.80
2017-06-29T07:23:24.795Z,72.00
2017-06-29T07:25:51.631Z,71.90
2017-06-29T07:28:18.533Z,71.70
2017-06-29T07:30:45.382Z,71.70
2017-06-29T07:33:12.318Z,72.00
2017-06-29T07:35:39.144Z,71.90
2017-06-29T07:38:05.961Z,71.60
2017-06-29T07:40:32.888Z,71.20
2017-06-29T07:42:59.711Z,71.50
2017-06-29T07:45:26.548Z,71.40
2017-06-29T07:47:53.536Z,71.70
2017-06-29T07:50:20.366Z,71.60
2017-06-29T07:52:47.207Z,71.60
2017-06-29T07:55:14.142Z,71.20
2017-06-29T07:57:40.960Z,71.00
2017-06-29T08:00:07.931Z,71.30
2017-06-29T08:02:34.841Z,71.50
2017-06-29T08:05:01.787Z,71.80
2017-06-29T08:07:28.748Z,71.30
2017-06-29T08:09:55.574Z,71.10
2017-06-29T08:12:22.492Z,71.70
2017-06-29T08:14:50.075Z,71.10
2017-06-29T08:17:17.727Z,70.20
2017-06-29T08:19:44.534Z,70.10
2017-06-29T08:22:11.430Z,70.30
2017-06-29T08:24:38.452Z,70.30
2017-06-29T08:27:05.280Z,71.20
2017-06-29T08:29:32.226Z,69.80
2017-06-29T08:31:59.086Z,70.20
2017-06-29T08:34:25.901Z,70.00
2017-06-29T08:36:52.811Z,69.30
2017-06-29T08:39:19.682Z,70.50
2017-06-29T08:41:46.862Z,68.40
2017-06-29T08:44:13.686Z,69.50
2017-06-29T08:46:40.523Z,68.80
2017-06-29T08:49:07.418Z,69.10
2017-06-29T08:51:34.267Z,68.40
2017-06-29T08:54:02.174Z,67.90
2017-06-29T08:56:29.066Z,67.90
2017-06-29T08:58:55.963Z,68.10
2017-06-29T09:01:23.120Z,68.10
2017-06-29T09:03:50.095Z,67.50
2017-06-29T09:06:16.922Z,67.50
2017-06-29T09:08:43.891Z,67.00
2017-06-29T09:11:10.831Z,66.20
2017-06-29T09:13:37.787Z,64.90
2017-06-29T09:16:05.370Z,66.40
2017-06-29T09:18:32.931Z,64.80
2017-06-29T09:20:59.823Z,64.80
2017-06-29T09:23:26.638Z,66.20
2017-06-29T09:25:53.546Z,66.00
2017-06-29T09:28:20.407Z,66.40
2017-06-29T09:30:48.844Z,65.50
2017-06-29T09:33:15.707Z,65.40
2017-06-29T09:35:42.596Z,66.30
2017-06-29T09:38:09.592Z,65.80
2017-06-29T09:40:36.447Z,65.40
2017-06-29T09:43:03.358Z,64.80
2017-06-29T09:45:30.254Z,63.80
2017-06-29T09:47:57.868Z,63.50
2017-06-29T09:50:34.343Z,63.50
2017-06-29T09:53:01.946Z,64.30
2017-06-29T09:55:51.191Z,64.40
2017-06-29T09:58:18.967Z,64.40
2017-06-29T10:00:48.676Z,63.60
2017-06-29T10:03:16.412Z,62.80
2017-06-29T10:05:43.242Z,62.80
2017-06-29T10:08:10.138Z,63.60
2017-06-29T10:10:37.784Z,63.70
2017-06-29T10:13:04.612Z,63.70
2017-06-29T10:15:31.559Z,62.90
2017-06-29T10:17:58.383Z,62.90
2017-06-29T10:20:25.226Z,62.30
2017-06-29T10:22:52.148Z,61.70
2017-06-29T10:25:19.042Z,62.20
2017-06-29T10:27:45.979Z,61.90
2017-06-29T10:30:12.861Z,61.80
2017-06-29T10:32:41.485Z,62.20
2017-06-29T10:35:09.175Z,61.30
2017-06-29T10:37:36.092Z,61.20
2017-06-29T10:40:02.927Z,61.90
2017-06-29T10:42:29.875Z,60.60
2017-06-29T10:44:57.289Z,60.10
2017-06-29T10:47:24.775Z,60.30
2017-06-29T10:49:52.340Z,60.90
2017-06-29T10:52:19.176Z,60.90
2017-06-29T10:54:46.811Z,60.40
2017-06-29T10:57:13.753Z,60.40
2017-06-29T10:59:40.912Z,60.20
2017-06-29T11:02:08.019Z,59.70
2017-06-29T11:04:37.201Z,60.10
2017-06-29T11:07:04.222Z,59.10
2017-06-29T11:09:33.597Z,58.90
2017-06-29T11:12:00.574Z,58.90
2017-06-29T11:14:28.313Z,59.00
2017-06-29T11:16:55.223Z,58.80
2017-06-29T11:19:23.670Z,57.70
2017-06-29T11:21:52.694Z,57.70
2017-06-29T11:24:20.299Z,57.00
2017-06-29T11:26:47.344Z,58.00
2017-06-29T11:29:14.174Z,56.70
2017-06-29T11:31:41.072Z,57.10
2017-06-29T11:34:21.657Z,55.90
2017-06-29T11:36:59.656Z,55.60
2017-06-29T11:39:32.794Z,55.40
2017-06-29T11:42:14.521Z,55.70
2017-06-29T11:44:41.948Z,54.90
2017-06-29T11:47:08.867Z,55.10
2017-06-29T11:49:35.695Z,54.30
2017-06-29T11:52:02.527Z,54.30
2017-06-29T11:54:29.449Z,54.10
2017-06-29T11:56:57.040Z,52.70
2017-06-29T11:59:23.937Z,53.10
2017-06-29T12:01:50.927Z,53.80
2017-06-29T12:04:17.771Z,52.80
2017-06-29T12:06:44.715Z,52.50
2017-06-29T12:09:11.634Z,53.30
2017-06-29T12:11:38.475Z,53.50
2017-06-29T12:14:05.391Z,51.00
2017-06-29T12:16:40.717Z,51.00
2017-06-29T12:19:22.887Z,51.20
2017-06-29T12:24:40.814Z,51.00
2017-06-29T12:27:13.859Z,50.80
2017-06-29T12:29:49.068Z,51.40
2017-06-29T12:32:23.997Z,51.10
2017-06-29T12:34:55.569Z,49.30
2017-06-29T12:37:34.201Z,49.50
2017-06-29T12:40:16.288Z,50.40
2017-06-29T12:43:02.782Z,50.00
2017-06-29T12:45:39.659Z,49.90
2017-06-29T12:48:07.228Z,48.60
2017-06-29T12:50:34.050Z,48.60
2017-06-29T12:53:00.949Z,47.80
2017-06-29T12:55:28.386Z,48.50
2017-06-29T12:57:55.215Z,47.00
2017-06-29T13:00:22.944Z,46.30
2017-06-29T13:02:49.916Z,46.30
2017-06-29T13:05:17.613Z,45.20
2017-06-29T13:07:44.624Z,45.20
2017-06-29T13:10:12.273Z,45.70
2017-06-29T13:12:39.167Z,45.70
2017-06-29T13:15:06.019Z,46.70
2017-06-29T13:17:37.262Z,46.90
2017-06-29T13:20:04.964Z,47.40
2017-06-29T13:22:31.996Z,46.80
2017-06-29T13:24:58.997Z,47.00
2017-06-29T13:27:26.566Z,46.00
2017-06-29T13:29:54.632Z,46.00
2017-06-29T13:32:27.778Z,43.80
2017-06-29T13:34:55.600Z,43.60
2017-06-29T13:37:22.438Z,43.60
2017-06-29T13:39:49.361Z,43.50
2017-06-29T13:42:16.217Z,44.30
2017-06-29T13:44:43.884Z,43.70
2017-06-29T13:47:11.491Z,40.50
2017-06-29T13:49:38.394Z,40.50
2017-06-29T13:52:05.161Z,40.00
2017-06-29T13:54:32.065Z,40.30
2017-06-29T13:56:59.723Z,39.70
2017-06-29T13:59:27.459Z,40.90
2017-06-29T14:01:54.395Z,40.20
2017-06-29T14:04:21.321Z,40.70
2017-06-29T14:06:48.144Z,40.90
2017-06-29T14:09:15.779Z,40.30
2017-06-29T14:11:42.691Z,40.30
2017-06-29T14:14:09.526Z,41.00
2017-06-29T14:16:36.419Z,39.80
2017-06-29T14:19:03.392Z,39.10
2017-06-29T14:21:30.244Z,39.40
2017-06-29T14:23:57.171Z,39.50
2017-06-29T14:26:25.012Z,39.80
2017-06-29T14:28:51.848Z,39.80
2017-06-29T14:31:18.775Z,38.40
2017-06-29T14:33:45.626Z,38.60
2017-06-29T14:36:12.476Z,38.50
2017-06-29T14:38:39.422Z,38.70
2017-06-29T14:41:06.266Z,38.80
2017-06-29T14:43:33.106Z,38.40
2017-06-29T14:46:00.030Z,37.90
2017-06-29T14:48:26.894Z,38.70
2017-06-29T14:50:53.747Z,39.10
2017-06-29T14:53:20.719Z,39.60
2017-06-29T14:55:47.605Z,38.00
2017-06-29T14:58:14.435Z,38.30
2017-06-29T15:00:41.335Z,37.80
2017-06-29T15:03:08.163Z,37.70
2017-06-29T15:05:35.035Z,35.30
2017-06-29T15:08:01.941Z,36.10
2017-06-29T15:10:28.924Z,35.10
2017-06-29T15:12:55.751Z,34.50
2017-06-29T15:15:22.745Z,35.30
2017-06-29T15:17:49.579Z,34.80
2017-06-29T15:20:17.359Z,34.50
2017-06-29T15:22:44.290Z,34.50
2017-06-29T15:25:11.939Z,35.30
2017-06-29T15:27:38.989Z,35.20
2017-06-29T15:30:05.859Z,34.50
2017-06-29T15:32:32.703Z,34.40
2017-06-29T15:34:59.685Z,34.90
2017-06-29T15:37:26.540Z,34.60
2017-06-29T15:39:53.435Z,34.00
2017-06-29T15:42:20.346Z,34.00
2017-06-29T15:44:47.171Z,35.20
2017-06-29T15:47:14.035Z,34.90
2017-06-29T15:49:40.988Z,34.40
2017-06-29T15:52:07.831Z,35.20
2017-06-29T15:54:34.711Z,35.10
2017-06-29T15:57:01.626Z,35.60
2017-06-29T15:59:29.309Z,36.30
2017-06-29T16:01:56.976Z,37.40
2017-06-29T16:04:23.819Z,37.40
2017-06-29T16:06:53.308Z,41.90
2017-06-29T16:09:20.946Z,55.40
2017-06-29T16:11:47.764Z,55.40
2017-06-29T16:14:14.688Z,56.10
2017-06-29T16:16:41.521Z,59.90
2017-06-29T16:19:08.369Z,61.90
2017-06-29T16:21:38.181Z,63.10
2017-06-29T16:24:05.097Z,64.30
2017-06-29T16:26:32.005Z,66.10
2017-06-29T16:28:58.896Z,66.80
2017-06-29T16:31:25.860Z,66.40
2017-06-29T16:33:53.456Z,68.50
2017-06-29T16:36:20.310Z,68.50
2017-06-29T16:38:47.251Z,67.70
2017-06-29T16:41:14.178Z,67.10
2017-06-29T16:43:41.015Z,67.30
2017-06-29T16:46:07.842Z,66.70
2017-06-29T16:48:34.781Z,67.20
2017-06-29T16:51:02.391Z,67.20
2017-06-29T16:53:29.319Z,67.10
2017-06-29T16:55:56.227Z,66.50
2017-06-29T16:58:23.915Z,66.30
2017-06-29T17:00:50.845Z,65.70
2017-06-29T17:03:17.832Z,65.90
2017-06-29T17:05:44.690Z,65.40
2017-06-29T17:08:11.640Z,65.50
2017-06-29T17:10:38.545Z,66.20
2017-06-29T17:13:05.379Z,66.20
2017-06-29T17:15:32.310Z,65.70
2017-06-29T17:17:59.150Z,66.70
2017-06-29T17:20:26.072Z,66.10
2017-06-29T17:22:52.923Z,67.30
2017-06-29T17:25:19.754Z,65.80
2017-06-29T17:27:46.670Z,66.50
2017-06-29T17:30:13.595Z,67.00
2017-06-29T17:32:40.451Z,66.30
2017-06-29T17:35:07.294Z,66.50
2017-06-29T17:37:34.204Z,67.80
2017-06-29T17:40:01.111Z,66.10
2017-06-29T17:42:27.934Z,66.60
2017-06-29T17:44:54.834Z,66.30
2017-06-29T17:47:21.685Z,66.40
2017-06-29T17:49:48.587Z,66.00
2017-06-29T17:52:15.495Z,66.50
2017-06-29T17:54:42.367Z,67.10
2017-06-29T17:57:09.933Z,66.90
2017-06-29T17:59:37.141Z,66.60
2017-06-29T18:02:04.780Z,67.30
2017-06-29T18:04:31.606Z,67.30
2017-06-29T18:06:58.525Z,67.30
2017-06-29T18:09:25.399Z,67.50
2017-06-29T18:11:52.335Z,68.00
2017-06-29T18:14:19.272Z,67.40
2017-06-29T18:16:46.129Z,67.80
2017-06-29T18:19:16.079Z,68.30
2017-06-29T18:21:43.517Z,68.00
2017-06-29T18:24:11.303Z,68.70
2017-06-29T18:26:38.150Z,68.70
2017-06-29T18:29:05.906Z,68.80
2017-06-29T18:31:36.195Z,68.70
2017-06-29T18:34:04.496Z,68.40
2017-06-29T18:36:32.103Z,68.00
2017-06-29T18:39:01.831Z,68.00
2017-06-29T18:41:28.814Z,67.70
2017-06-29T18:43:55.670Z,67.80
2017-06-29T18:46:25.441Z,67.80
2017-06-29T18:48:55.686Z,67.80
2017-06-29T18:51:22.803Z,68.10
2017-06-29T18:53:52.411Z,68.10
2017-06-29T18:56:20.799Z,68.50
2017-06-29T18:58:49.129Z,68.60
2017-06-29T19:01:16.342Z,69.40
2017-06-29T19:03:43.278Z,68.70
2017-06-29T19:06:10.212Z,68.40
2017-06-29T19:08:39.778Z,68.60
2017-06-29T19:11:10.553Z,68.30
2017-06-29T19:13:38.486Z,68.60
2017-06-29T19:16:06.640Z,68.50
2017-06-29T19:18:38.157Z,68.50
2017-06-29T19:21:05.183Z,68.40
2017-06-29T19:23:32.157Z,68.30
2017-06-29T19:26:00.528Z,68.80
2017-06-29T19:28:28.532Z,68.50
2017-06-29T19:30:55.480Z,68.60
2017-06-29T19:33:22.396Z,67.80
2017-06-29T19:35:50.793Z,67.60
2017-06-29T19:38:17.851Z,67.00
2017-06-29T19:40:44.761Z,66.80
2017-06-29T19:43:15.012Z,66.60
2017-06-29T19:45:42.093Z,67.30
2017-06-29T19:48:11.066Z,66.80
2017-06-29T19:50:39.075Z,65.90
2017-06-29T19:53:06.038Z,65.90
2017-06-29T19:55:34.561Z,65.00
2017-06-29T19:58:01.562Z,64.90
2017-06-29T20:00:29.816Z,65.30
2017-06-29T20:02:59.048Z,65.10
2017-06-29T20:05:26.232Z,65.10
2017-06-29T20:07:53.073Z,64.80
2017-06-29T20:10:20.118Z,64.60
2017-06-29T20:12:46.960Z,65.00
2017-06-29T20:15:15.458Z,64.60
2017-06-29T20:17:42.398Z,64.50
2017-06-29T20:20:11.191Z,64.50
2017-06-29T20:22:38.939Z,64.30
2017-06-29T20:25:05.867Z,63.80
2017-06-29T20:27:32.788Z,64.10
2017-06-29T20:29:59.833Z,64.40
2017-06-29T20:32:27.542Z,64.40
2017-06-29T20:34:54.670Z,64.50
2017-06-29T20:37:22.325Z,64.40
2017-06-29T20:39:50.715Z,64.30
2017-06-29T20:42:22.173Z,64.70
2017-06-29T20:44:50.468Z,64.60
2017-06-29T20:47:18.920Z,65.00
2017-06-29T20:49:45.930Z,64.90
2017-06-29T20:52:12.784Z,65.20
2017-06-29T20:54:39.699Z,65.10
2017-06-29T20:57:06.534Z,65.20
2017-06-29T20:59:33.394Z,65.90
2017-06-29T21:02:00.349Z,66.00
2017-06-29T21:04:27.178Z,66.30
2017-06-29T21:06:55.040Z,66.40
2017-06-29T21:09:22.314Z,66.30
2017-06-29T21:11:50.158Z,66.50
2017-06-29T21:14:18.137Z,66.90
2017-06-29T21:16:46.539Z,66.90
2017-06-29T21:19:13.455Z,67.80
2017-06-29T21:21:40.773Z,67.30
2017-06-29T21:24:08.762Z,66.90
2017-06-29T21:26:38.722Z,66.90
2017-06-29T21:29:05.557Z,67.10
2017-06-29T21:31:33.027Z,67.40
2017-06-29T21:36:41.136Z,67.50
2017-06-29T21:39:10.097Z,67.40
2017-06-29T21:41:42.302Z,67.90
2017-06-29T21:44:10.431Z,68.00
2017-06-29T21:46:37.335Z,68.00
2017-06-29T21:49:07.579Z,68.20
2017-06-29T21:51:44.347Z,68.30
2017-06-29T21:54:21.064Z,68.30
2017-06-29T21:56:48.746Z,68.30
2017-06-29T21:59:15.603Z,68.00
2017-06-29T22:01:46.647Z,68.30
2017-06-29T22:04:13.562Z,68.40
2017-06-29T22:06:40.479Z,68.30
2017-06-29T22:09:07.306Z,68.30
2017-06-29T22:11:34.162Z,68.40
2017-06-29T22:14:01.807Z,68.00
2017-06-29T22:16:29.462Z,68.00
2017-06-29T22:19:00.806Z,67.70
2017-06-29T22:21:32.539Z,67.60
2017-06-29T22:24:01.369Z,67.80
2017-06-29T22:26:33.274Z,68.00
2017-06-29T22:29:04.628Z,67.80
2017-06-29T22:31:34.037Z,67.70
2017-06-29T22:34:02.805Z,67.80
2017-06-29T22:36:31.087Z,67.70
2017-06-29T22:39:05.000Z,67.80
2017-06-29T22:41:32.528Z,67.90
2017-06-29T22:43:59.819Z,67.80
2017-06-29T22:46:27.120Z,67.80
2017-06-29T22:48:53.960Z,67.90
2017-06-29T22:51:29.814Z,68.10
2017-06-29T22:53:56.771Z,68.90
2017-06-29T22:56:30.142Z,68.00
2017-06-29T22:58:56.983Z,68.00
2017-06-29T23:01:24.483Z,67.60
2017-06-29T23:03:51.797Z,67.70
2017-06-29T23:06:27.492Z,67.80
2017-06-29T23:08:56.279Z,67.90
2017-06-29T23:11:23.188Z,68.00
2017-06-29T23:13:50.007Z,67.90
2017-06-29T23:16:16.901Z,68.10
2017-06-29T23:18:43.822Z,68.00
2017-06-29T23:21:10.763Z,68.20
2017-06-29T23:23:37.600Z,68.30
2017-06-29T23:26:04.468Z,68.00
2017-06-29T23:28:31.373Z,67.80
2017-06-29T23:30:58.241Z,68.20
2017-06-29T23:33:25.139Z,68.00
2017-06-29T23:35:52.723Z,67.70
2017-06-29T23:38:19.631Z,67.70
2017-06-29T23:40:46.471Z,67.50
2017-06-29T23:43:13.322Z,67.70
2017-06-29T23:45:40.230Z,67.50
2017-06-29T23:48:07.050Z,67.70
2017-06-29T23:50:33.943Z,67.60
2017-06-29T23:53:00.778Z,68.00
2017-06-29T23:55:27.687Z,67.70
2017-06-29T23:57:54.520Z,67.50
